sensor_id;sensor_type;location;lat;lon;timestamp;pressure;altitude;pressure_sealevel;temperature;humidity
48964;BME280;34776;48.180;16.420;2023-04-09T00:02:17;100472.28;;;6.21;86.32
48964;BME280;34776;48.180;16.420;2023-04-09T00:04:43;100475.03;;;6.18;86.21
48964;BME280;34776;48.180;16.420;2023-04-09T00:07:08;100469.69;;;6.19;86.67
48964;BME280;34776;48.180;16.420;2023-04-09T00:09:33;100473.16;;;6.21;87.43
48964;BME280;34776;48.180;16.420;2023-04-09T00:11:59;100475.03;;;6.18;87.71
48964;BME280;34776;48.180;16.420;2023-04-09T00:14:24;100473.28;;;6.15;88.29
48964;BME280;34776;48.180;16.420;2023-04-09T00:16:52;100473.47;;;6.09;88.77
48964;BME280;34776;48.180;16.420;2023-04-09T00:19:19;100468.09;;;6.12;89.32
48964;BME280;34776;48.180;16.420;2023-04-09T00:21:44;100471.56;;;6.14;89.53
48964;BME280;34776;48.180;16.420;2023-04-09T00:24:10;100473.38;;;6.12;89.88
48964;BME280;34776;48.180;16.420;2023-04-09T00:26:35;100480.47;;;6.10;90.37
48964;BME280;34776;48.180;16.420;2023-04-09T00:29:00;100471.78;;;6.05;90.27
48964;BME280;34776;48.180;16.420;2023-04-09T00:31:26;100473.66;;;6.00;90.56
48964;BME280;34776;48.180;16.420;2023-04-09T00:33:51;100473.72;;;5.97;90.81
48964;BME280;34776;48.180;16.420;2023-04-09T00:36:16;100471.97;;;5.96;91.19
48964;BME280;34776;48.180;16.420;2023-04-09T00:38:42;100478.16;;;5.95;91.49
48964;BME280;34776;48.180;16.420;2023-04-09T00:41:07;100473.75;;;5.94;91.49
48964;BME280;34776;48.180;16.420;2023-04-09T00:43:32;100468.44;;;5.97;91.71
48964;BME280;34776;48.180;16.420;2023-04-09T00:45:59;100476.28;;;6.00;91.80
48964;BME280;34776;48.180;16.420;2023-04-09T00:48:25;100475.31;;;6.04;92.08
48964;BME280;34776;48.180;16.420;2023-04-09T00:50:51;100484.00;;;6.09;92.31
48964;BME280;34776;48.180;16.420;2023-04-09T00:53:16;100475.25;;;6.07;92.19
48964;BME280;34776;48.180;16.420;2023-04-09T00:55:42;100476.28;;;6.00;92.25
48964;BME280;34776;48.180;16.420;2023-04-09T00:58:07;100470.25;;;5.95;92.47
48964;BME280;34776;48.180;16.420;2023-04-09T01:00:33;100477.25;;;5.96;92.65
48964;BME280;34776;48.180;16.420;2023-04-09T01:02:59;100478.19;;;5.92;92.77
48964;BME280;34776;48.180;16.420;2023-04-09T01:05:36;100470.34;;;5.88;93.22
48964;BME280;34776;48.180;16.420;2023-04-09T01:14:15;100478.25;;;5.88;93.45
48964;BME280;34776;48.180;16.420;2023-04-09T01:16:48;100473.00;;;5.88;93.43
48964;BME280;34776;48.180;16.420;2023-04-09T01:19:40;100473.09;;;5.84;93.52
48964;BME280;34776;48.180;16.420;2023-04-09T01:22:18;100474.84;;;5.83;93.73
48964;BME280;34776;48.180;16.420;2023-04-09T01:25:03;100469.66;;;5.79;93.74
48964;BME280;34776;48.180;16.420;2023-04-09T01:27:38;100470.59;;;5.76;93.67
48964;BME280;34776;48.180;16.420;2023-04-09T01:30:08;100467.19;;;5.71;93.61
48964;BME280;34776;48.180;16.420;2023-04-09T01:32:36;100465.38;;;5.73;93.83
48964;BME280;34776;48.180;16.420;2023-04-09T01:35:03;100468.81;;;5.78;94.01
48964;BME280;34776;48.180;16.420;2023-04-09T01:37:29;100468.84;;;5.77;93.86
48964;BME280;34776;48.180;16.420;2023-04-09T01:39:54;100463.56;;;5.75;93.74
48964;BME280;34776;48.180;16.420;2023-04-09T01:42:20;100464.53;;;5.73;93.57
48964;BME280;34776;48.180;16.420;2023-04-09T01:44:46;100467.13;;;5.74;93.83
48964;BME280;34776;48.180;16.420;2023-04-09T01:47:12;100472.19;;;5.83;94.10
48964;BME280;34776;48.180;16.420;2023-04-09T01:49:40;100461.59;;;5.86;93.90
48964;BME280;34776;48.180;16.420;2023-04-09T01:52:06;100470.41;;;5.85;93.42
48964;BME280;34776;48.180;16.420;2023-04-09T01:54:31;100467.97;;;5.76;92.98
48964;BME280;34776;48.180;16.420;2023-04-09T01:56:57;100463.78;;;5.66;92.74
48964;BME280;34776;48.180;16.420;2023-04-09T01:59:22;100467.47;;;5.59;92.93
48964;BME280;34776;48.180;16.420;2023-04-09T02:01:54;100471.06;;;5.55;93.36
48964;BME280;34776;48.180;16.420;2023-04-09T02:04:25;100468.34;;;5.58;93.39
48964;BME280;34776;48.180;16.420;2023-04-09T02:07:09;100469.16;;;5.61;93.61
48964;BME280;34776;48.180;16.420;2023-04-09T02:09:38;100467.47;;;5.57;93.02
48964;BME280;34776;48.180;16.420;2023-04-09T02:12:06;100467.47;;;5.59;93.51
48964;BME280;34776;48.180;16.420;2023-04-09T02:14:37;100469.31;;;5.54;92.99
48964;BME280;34776;48.180;16.420;2023-04-09T02:17:04;100468.63;;;5.44;93.18
48964;BME280;34776;48.180;16.420;2023-04-09T02:19:44;100459.00;;;5.41;93.72
48964;BME280;34776;48.180;16.420;2023-04-09T02:22:11;100467.75;;;5.43;93.78
48964;BME280;34776;48.180;16.420;2023-04-09T02:24:36;100464.25;;;5.43;94.01
48964;BME280;34776;48.180;16.420;2023-04-09T02:27:02;100470.28;;;5.48;93.92
48964;BME280;34776;48.180;16.420;2023-04-09T02:29:29;100465.81;;;5.52;93.78
48964;BME280;34776;48.180;16.420;2023-04-09T02:31:55;100460.75;;;5.42;93.26
48964;BME280;34776;48.180;16.420;2023-04-09T02:34:20;100459.06;;;5.38;93.49
48964;BME280;34776;48.180;16.420;2023-04-09T02:36:46;100459.91;;;5.40;93.99
48964;BME280;34776;48.180;16.420;2023-04-09T02:39:11;100459.91;;;5.42;93.88
48964;BME280;34776;48.180;16.420;2023-04-09T02:41:36;100465.06;;;5.46;94.07
48964;BME280;34776;48.180;16.420;2023-04-09T02:44:02;100458.03;;;5.47;94.40
48964;BME280;34776;48.180;16.420;2023-04-09T02:46:27;100465.00;;;5.48;94.20
48964;BME280;34776;48.180;16.420;2023-04-09T02:48:53;100464.03;;;5.54;94.62
48964;BME280;34776;48.180;16.420;2023-04-09T02:51:19;100471.84;;;5.58;94.63
48964;BME280;34776;48.180;16.420;2023-04-09T02:53:44;100469.19;;;5.58;94.54
48964;BME280;34776;48.180;16.420;2023-04-09T02:56:10;100473.56;;;5.61;94.59
48964;BME280;34776;48.180;16.420;2023-04-09T02:58:35;100468.22;;;5.64;94.58
48964;BME280;34776;48.180;16.420;2023-04-09T03:01:00;100471.66;;;5.67;94.49
48964;BME280;34776;48.180;16.420;2023-04-09T03:03:26;100476.09;;;5.67;94.32
48964;BME280;34776;48.180;16.420;2023-04-09T03:05:51;100472.59;;;5.65;94.27
48964;BME280;34776;48.180;16.420;2023-04-09T03:08:16;100476.13;;;5.64;94.13
48964;BME280;34776;48.180;16.420;2023-04-09T03:10:42;100467.50;;;5.56;93.67
48964;BME280;34776;48.180;16.420;2023-04-09T03:13:07;100464.84;;;5.57;94.10
48964;BME280;34776;48.180;16.420;2023-04-09T03:15:32;100473.56;;;5.61;94.29
48964;BME280;34776;48.180;16.420;2023-04-09T03:17:58;100470.84;;;5.64;94.30
48964;BME280;34776;48.180;16.420;2023-04-09T03:20:23;100468.31;;;5.59;93.90
48964;BME280;34776;48.180;16.420;2023-04-09T03:22:48;100458.84;;;5.51;93.65
48964;BME280;34776;48.180;16.420;2023-04-09T03:25:14;100454.41;;;5.53;93.76
48964;BME280;34776;48.180;16.420;2023-04-09T03:27:39;100465.06;;;5.46;93.54
48964;BME280;34776;48.180;16.420;2023-04-09T03:30:05;100462.47;;;5.43;93.49
48964;BME280;34776;48.180;16.420;2023-04-09T03:32:30;100467.81;;;5.40;93.54
48964;BME280;34776;48.180;16.420;2023-04-09T03:34:55;100462.47;;;5.43;93.93
48964;BME280;34776;48.180;16.420;2023-04-09T03:37:21;100464.03;;;5.54;94.09
48964;BME280;34776;48.180;16.420;2023-04-09T03:39:46;100463.91;;;5.60;94.10
48964;BME280;34776;48.180;16.420;2023-04-09T03:42:11;100468.31;;;5.61;93.91
48964;BME280;34776;48.180;16.420;2023-04-09T03:44:37;100470.03;;;5.62;93.78
48964;BME280;34776;48.180;16.420;2023-04-09T03:47:02;100471.72;;;5.64;93.86
48964;BME280;34776;48.180;16.420;2023-04-09T03:49:27;100470.81;;;5.67;93.82
48964;BME280;34776;48.180;16.420;2023-04-09T03:51:53;100468.19;;;5.65;93.73
48964;BME280;34776;48.180;16.420;2023-04-09T03:54:18;100462.00;;;5.68;93.99
48964;BME280;34776;48.180;16.420;2023-04-09T03:56:43;100476.00;;;5.70;93.82
48964;BME280;34776;48.180;16.420;2023-04-09T03:59:09;100469.88;;;5.69;93.71
48964;BME280;34776;48.180;16.420;2023-04-09T04:01:34;100461.91;;;5.71;93.87
48964;BME280;34776;48.180;16.420;2023-04-09T04:03:59;100470.72;;;5.72;93.67
48964;BME280;34776;48.180;16.420;2023-04-09T04:06:25;100476.00;;;5.70;93.93
48964;BME280;34776;48.180;16.420;2023-04-09T04:08:51;100482.22;;;5.67;93.80
48964;BME280;34776;48.180;16.420;2023-04-09T04:11:16;100484.94;;;5.63;93.69
48964;BME280;34776;48.180;16.420;2023-04-09T04:13:42;100484.91;;;5.64;93.98
48964;BME280;34776;48.180;16.420;2023-04-09T04:16:08;100486.69;;;5.64;93.53
48964;BME280;34776;48.180;16.420;2023-04-09T04:18:34;100486.75;;;5.61;93.26
48964;BME280;34776;48.180;16.420;2023-04-09T04:21:00;100490.34;;;5.57;93.30
48964;BME280;34776;48.180;16.420;2023-04-09T04:23:25;100492.91;;;5.60;93.48
48964;BME280;34776;48.180;16.420;2023-04-09T04:25:50;100498.09;;;5.64;93.83
48964;BME280;34776;48.180;16.420;2023-04-09T04:28:17;100502.44;;;5.67;93.85
48964;BME280;34776;48.180;16.420;2023-04-09T04:30:43;100495.31;;;5.72;94.02
48964;BME280;34776;48.180;16.420;2023-04-09T04:33:08;100492.59;;;5.75;94.19
48964;BME280;34776;48.180;16.420;2023-04-09T04:35:34;100497.72;;;5.83;93.81
48964;BME280;34776;48.180;16.420;2023-04-09T04:38:00;100500.25;;;5.87;93.98
48964;BME280;34776;48.180;16.420;2023-04-09T04:40:25;100500.25;;;5.87;93.77
48964;BME280;34776;48.180;16.420;2023-04-09T04:42:51;100504.53;;;5.93;93.89
48964;BME280;34776;48.180;16.420;2023-04-09T04:45:16;100504.50;;;5.96;93.75
48964;BME280;34776;48.180;16.420;2023-04-09T04:47:42;100500.03;;;6.00;93.69
48964;BME280;34776;48.180;16.420;2023-04-09T04:50:07;100508.78;;;6.02;93.46
48964;BME280;34776;48.180;16.420;2023-04-09T04:52:33;100502.53;;;6.06;93.46
48964;BME280;34776;48.180;16.420;2023-04-09T04:54:58;100510.44;;;6.06;93.19
48964;BME280;34776;48.180;16.420;2023-04-09T04:57:24;100515.72;;;6.06;92.94
48964;BME280;34776;48.180;16.420;2023-04-09T04:59:49;100513.91;;;6.08;92.84
48964;BME280;34776;48.180;16.420;2023-04-09T05:02:15;100515.69;;;6.09;92.81
48964;BME280;34776;48.180;16.420;2023-04-09T05:04:40;100512.03;;;6.13;93.04
48964;BME280;34776;48.180;16.420;2023-04-09T05:07:05;100514.66;;;6.15;92.86
48964;BME280;34776;48.180;16.420;2023-04-09T05:09:31;100518.16;;;6.15;92.67
48964;BME280;34776;48.180;16.420;2023-04-09T05:11:56;100521.56;;;6.20;92.83
48964;BME280;34776;48.180;16.420;2023-04-09T05:14:22;100523.25;;;6.24;92.91
48964;BME280;34776;48.180;16.420;2023-04-09T05:16:48;100523.13;;;6.29;92.61
48964;BME280;34776;48.180;16.420;2023-04-09T05:19:13;100524.72;;;6.36;92.43
48964;BME280;34776;48.180;16.420;2023-04-09T05:21:39;100529.22;;;6.33;91.60
48964;BME280;34776;48.180;16.420;2023-04-09T05:24:05;100530.94;;;6.34;91.64
48964;BME280;34776;48.180;16.420;2023-04-09T05:26:30;100526.47;;;6.37;91.33
48964;BME280;34776;48.180;16.420;2023-04-09T05:28:56;100531.66;;;6.42;91.33
48964;BME280;34776;48.180;16.420;2023-04-09T05:31:21;100528.81;;;6.51;91.01
48964;BME280;34776;48.180;16.420;2023-04-09T05:33:47;100527.03;;;6.52;90.58
48964;BME280;34776;48.180;16.420;2023-04-09T05:36:16;100529.56;;;6.56;90.48
48964;BME280;34776;48.180;16.420;2023-04-09T05:38:42;100535.44;;;6.67;90.33
48964;BME280;34776;48.180;16.420;2023-04-09T05:41:08;100538.72;;;6.79;90.33
48964;BME280;34776;48.180;16.420;2023-04-09T05:43:34;100536.00;;;6.82;89.15
48964;BME280;34776;48.180;16.420;2023-04-09T05:45:59;100543.06;;;6.81;88.72
48964;BME280;34776;48.180;16.420;2023-04-09T05:48:24;100536.81;;;6.84;88.34
48964;BME280;34776;48.180;16.420;2023-04-09T05:50:50;100548.91;;;6.94;88.54
48964;BME280;34776;48.180;16.420;2023-04-09T05:53:19;100543.56;;;6.97;87.97
48964;BME280;34776;48.180;16.420;2023-04-09T05:55:45;100548.84;;;6.97;87.71
48964;BME280;34776;48.180;16.420;2023-04-09T05:58:11;100547.94;;;6.97;87.64
48964;BME280;34776;48.180;16.420;2023-04-09T06:00:37;100547.09;;;6.96;86.90
48964;BME280;34776;48.180;16.420;2023-04-09T06:03:03;100545.19;;;7.01;87.13
48964;BME280;34776;48.180;16.420;2023-04-09T06:05:28;100546.75;;;7.10;86.83
48964;BME280;34776;48.180;16.420;2023-04-09T06:07:54;100547.53;;;7.14;86.54
48964;BME280;34776;48.180;16.420;2023-04-09T06:10:19;100556.91;;;7.27;86.48
48964;BME280;34776;48.180;16.420;2023-04-09T06:12:45;100549.63;;;7.35;86.21
48964;BME280;34776;48.180;16.420;2023-04-09T06:15:11;100552.84;;;7.46;85.80
48964;BME280;34776;48.180;16.420;2023-04-09T06:17:36;100557.16;;;7.50;85.06
48964;BME280;34776;48.180;16.420;2023-04-09T06:20:02;100554.34;;;7.57;84.87
48964;BME280;34776;48.180;16.420;2023-04-09T06:22:27;100549.09;;;7.55;84.15
48964;BME280;34776;48.180;16.420;2023-04-09T06:24:53;100551.75;;;7.55;84.30
48964;BME280;34776;48.180;16.420;2023-04-09T06:27:18;100551.41;;;7.67;84.18
48964;BME280;34776;48.180;16.420;2023-04-09T06:29:46;100553.22;;;7.65;83.29
48964;BME280;34776;48.180;16.420;2023-04-09T06:32:11;100560.34;;;7.63;83.08
48964;BME280;34776;48.180;16.420;2023-04-09T06:34:36;100560.44;;;7.60;83.03
48964;BME280;34776;48.180;16.420;2023-04-09T06:37:02;100561.13;;;7.67;83.28
48964;BME280;34776;48.180;16.420;2023-04-09T06:39:27;100555.56;;;7.76;83.19
48964;BME280;34776;48.180;16.420;2023-04-09T06:41:53;100558.66;;;7.92;83.09
48964;BME280;34776;48.180;16.420;2023-04-09T06:44:18;100557.50;;;8.02;82.33
48964;BME280;34776;48.180;16.420;2023-04-09T06:46:45;100552.56;;;8.20;82.01
48964;BME280;34776;48.180;16.420;2023-04-09T06:49:10;100557.44;;;8.33;81.23
48964;BME280;34776;48.180;16.420;2023-04-09T06:51:36;100562.13;;;8.55;80.73
48964;BME280;34776;48.180;16.420;2023-04-09T06:54:01;100563.31;;;8.73;79.79
48964;BME280;34776;48.180;16.420;2023-04-09T06:56:27;100561.13;;;8.86;78.96
48964;BME280;34776;48.180;16.420;2023-04-09T06:58:52;100566.16;;;8.95;77.97
48964;BME280;34776;48.180;16.420;2023-04-09T07:01:18;100572.00;;;9.05;77.69
48964;BME280;34776;48.180;16.420;2023-04-09T07:03:44;100572.16;;;9.27;77.07
48964;BME280;34776;48.180;16.420;2023-04-09T07:06:09;100578.16;;;9.59;76.79
48964;BME280;34776;48.180;16.420;2023-04-09T07:08:35;100577.00;;;9.91;75.55
48964;BME280;34776;48.180;16.420;2023-04-09T07:11:00;100578.69;;;10.17;74.12
48964;BME280;34776;48.180;16.420;2023-04-09T07:13:25;100579.84;;;10.10;73.02
48964;BME280;34776;48.180;16.420;2023-04-09T07:15:51;100579.97;;;10.07;73.31
48964;BME280;34776;48.180;16.420;2023-04-09T07:18:16;100580.75;;;10.34;72.95
48964;BME280;34776;48.180;16.420;2023-04-09T07:20:41;100580.44;;;10.65;71.36
48964;BME280;34776;48.180;16.420;2023-04-09T07:23:07;100589.47;;;10.61;70.48
48964;BME280;34776;48.180;16.420;2023-04-09T07:25:32;100587.41;;;10.46;70.32
48964;BME280;34776;48.180;16.420;2023-04-09T07:27:58;100587.97;;;10.30;69.94
48964;BME280;34776;48.180;16.420;2023-04-09T07:30:23;100588.34;;;10.20;70.57
48964;BME280;34776;48.180;16.420;2023-04-09T07:32:49;100591.56;;;10.04;70.67
48964;BME280;34776;48.180;16.420;2023-04-09T07:35:14;100586.34;;;10.01;70.80
48964;BME280;34776;48.180;16.420;2023-04-09T07:37:39;100595.06;;;9.81;69.78
48964;BME280;34776;48.180;16.420;2023-04-09T07:40:05;100598.56;;;9.57;70.01
48964;BME280;34776;48.180;16.420;2023-04-09T07:42:32;100595.03;;;9.31;70.83
48964;BME280;34776;48.180;16.420;2023-04-09T07:44:57;100601.69;;;9.16;71.75
48964;BME280;34776;48.180;16.420;2023-04-09T07:47:22;100607.00;;;9.16;71.86
48964;BME280;34776;48.180;16.420;2023-04-09T07:49:48;100604.50;;;9.11;72.05
48964;BME280;34776;48.180;16.420;2023-04-09T07:52:14;100604.50;;;9.11;72.10
48964;BME280;34776;48.180;16.420;2023-04-09T07:54:39;100602.75;;;9.10;72.05
48964;BME280;34776;48.180;16.420;2023-04-09T07:57:05;100600.84;;;9.16;71.92
48964;BME280;34776;48.180;16.420;2023-04-09T07:59:31;100600.53;;;9.25;71.49
48964;BME280;34776;48.180;16.420;2023-04-09T08:01:57;100600.97;;;9.38;71.43
48964;BME280;34776;48.180;16.420;2023-04-09T08:04:23;100609.44;;;9.49;71.02
48964;BME280;34776;48.180;16.420;2023-04-09T08:06:49;100608.38;;;9.54;71.04
48964;BME280;34776;48.180;16.420;2023-04-09T08:09:24;100608.81;;;9.67;70.49
48964;BME280;34776;48.180;16.420;2023-04-09T08:11:49;100613.03;;;9.73;70.75
48964;BME280;34776;48.180;16.420;2023-04-09T08:14:16;100603.78;;;9.60;70.68
48964;BME280;34776;48.180;16.420;2023-04-09T08:16:43;100608.91;;;9.64;71.24
48964;BME280;34776;48.180;16.420;2023-04-09T08:19:10;100613.03;;;9.73;70.93
48964;BME280;34776;48.180;16.420;2023-04-09T08:21:36;100607.94;;;9.67;70.70
48964;BME280;34776;48.180;16.420;2023-04-09T08:24:03;100610.38;;;9.73;71.29
48964;BME280;34776;48.180;16.420;2023-04-09T08:26:30;100609.75;;;9.66;70.24
48964;BME280;34776;48.180;16.420;2023-04-09T08:28:55;100615.78;;;9.70;70.19
48964;BME280;34776;48.180;16.420;2023-04-09T08:31:21;100625.16;;;9.80;69.73
48964;BME280;34776;48.180;16.420;2023-04-09T08:33:46;100619.19;;;9.99;68.97
48964;BME280;34776;48.180;16.420;2023-04-09T08:36:11;100618.38;;;10.22;68.64
48964;BME280;34776;48.180;16.420;2023-04-09T08:38:37;100620.13;;;10.70;67.65
48964;BME280;34776;48.180;16.420;2023-04-09T08:41:03;100620.66;;;11.44;65.78
48964;BME280;34776;48.180;16.420;2023-04-09T08:43:29;100618.44;;;12.17;63.25
48964;BME280;34776;48.180;16.420;2023-04-09T08:45:56;100614.94;;;12.35;62.07
48964;BME280;34776;48.180;16.420;2023-04-09T08:48:23;100618.59;;;12.14;62.41
48964;BME280;34776;48.180;16.420;2023-04-09T08:50:49;100620.44;;;12.12;62.35
48964;BME280;34776;48.180;16.420;2023-04-09T08:53:16;100621.09;;;11.96;62.19
48964;BME280;34776;48.180;16.420;2023-04-09T08:55:45;100622.16;;;11.72;62.45
48964;BME280;34776;48.180;16.420;2023-04-09T08:58:10;100629.09;;;11.76;62.78
48964;BME280;34776;48.180;16.420;2023-04-09T09:00:36;100624.69;;;11.75;62.31
48964;BME280;34776;48.180;16.420;2023-04-09T09:03:04;100625.09;;;11.66;62.55
48964;BME280;34776;48.180;16.420;2023-04-09T09:05:49;100626.44;;;11.76;61.73
48964;BME280;34776;48.180;16.420;2023-04-09T09:08:24;100626.88;;;11.65;60.96
48964;BME280;34776;48.180;16.420;2023-04-09T09:10:50;100624.34;;;11.62;58.96
48964;BME280;34776;48.180;16.420;2023-04-09T09:13:23;100636.28;;;11.31;62.11
48964;BME280;34776;48.180;16.420;2023-04-09T09:15:50;100634.44;;;11.11;63.12
48964;BME280;34776;48.180;16.420;2023-04-09T09:18:20;100633.38;;;10.93;63.07
48964;BME280;34776;48.180;16.420;2023-04-09T09:20:45;100633.19;;;10.98;63.86
48964;BME280;34776;48.180;16.420;2023-04-09T09:23:11;100634.44;;;11.11;62.87
48964;BME280;34776;48.180;16.420;2023-04-09T09:25:40;100635.56;;;11.48;61.88
48964;BME280;34776;48.180;16.420;2023-04-09T09:28:08;100630.97;;;11.94;60.65
48964;BME280;34776;48.180;16.420;2023-04-09T09:30:33;100627.19;;;12.39;59.39
48964;BME280;34776;48.180;16.420;2023-04-09T09:33:09;100623.44;;;12.44;58.84
48964;BME280;34776;48.180;16.420;2023-04-09T09:35:52;100620.91;;;12.59;57.43
48964;BME280;34776;48.180;16.420;2023-04-09T09:38:19;100629.41;;;12.87;58.76
48964;BME280;34776;48.180;16.420;2023-04-09T09:40:45;100614.34;;;13.05;57.49
48964;BME280;34776;48.180;16.420;2023-04-09T09:43:11;100623.97;;;13.07;56.74
48964;BME280;34776;48.180;16.420;2023-04-09T09:45:37;100617.31;;;13.16;56.51
48964;BME280;34776;48.180;16.420;2023-04-09T09:48:04;100609.69;;;13.27;56.27
48964;BME280;34776;48.180;16.420;2023-04-09T09:50:30;100622.81;;;13.32;56.09
48964;BME280;34776;48.180;16.420;2023-04-09T09:53:04;100613.31;;;13.07;55.74
48964;BME280;34776;48.180;16.420;2023-04-09T09:55:31;100611.84;;;13.19;56.74
48964;BME280;34776;48.180;16.420;2023-04-09T09:58:00;100606.94;;;13.29;55.43
48964;BME280;34776;48.180;16.420;2023-04-09T10:00:27;100617.63;;;13.29;55.42
48964;BME280;34776;48.180;16.420;2023-04-09T10:02:58;100609.97;;;13.57;55.17
48964;BME280;34776;48.180;16.420;2023-04-09T10:05:24;100609.41;;;13.68;55.21
48964;BME280;34776;48.180;16.420;2023-04-09T10:07:59;100614.81;;;13.84;54.37
48964;BME280;34776;48.180;16.420;2023-04-09T10:10:24;100605.47;;;14.26;53.75
48964;BME280;34776;48.180;16.420;2023-04-09T10:12:51;100609.00;;;14.60;52.96
48964;BME280;34776;48.180;16.420;2023-04-09T10:15:19;100608.34;;;14.55;52.17
48964;BME280;34776;48.180;16.420;2023-04-09T10:17:45;100604.88;;;14.70;52.25
48964;BME280;34776;48.180;16.420;2023-04-09T10:20:23;100600.91;;;14.77;51.56
48964;BME280;34776;48.180;16.420;2023-04-09T10:22:51;100604.16;;;15.14;51.29
48964;BME280;34776;48.180;16.420;2023-04-09T10:25:17;100598.03;;;15.12;50.68
48964;BME280;34776;48.180;16.420;2023-04-09T10:27:42;100590.63;;;14.86;50.47
48964;BME280;34776;48.180;16.420;2023-04-09T10:30:33;100598.06;;;14.80;48.92
48964;BME280;34776;48.180;16.420;2023-04-09T10:33:22;100592.59;;;14.98;49.25
48964;BME280;34776;48.180;16.420;2023-04-09T10:36:00;100593.13;;;14.89;50.25
48964;BME280;34776;48.180;16.420;2023-04-09T10:38:38;100584.81;;;15.09;50.66
48964;BME280;34776;48.180;16.420;2023-04-09T10:41:16;100588.81;;;14.70;48.99
48964;BME280;34776;48.180;16.420;2023-04-09T10:43:46;100593.41;;;14.35;50.46
48964;BME280;34776;48.180;16.420;2023-04-09T10:46:42;100590.41;;;14.08;49.61
48964;BME280;34776;48.180;16.420;2023-04-09T10:49:18;100593.81;;;14.11;50.49
48964;BME280;34776;48.180;16.420;2023-04-09T10:52:08;100589.13;;;14.15;49.08
48964;BME280;34776;48.180;16.420;2023-04-09T10:54:38;100583.34;;;14.07;50.67
48964;BME280;34776;48.180;16.420;2023-04-09T10:59:36;100576.50;;;13.68;51.38
48964;BME280;34776;48.180;16.420;2023-04-09T11:02:06;100583.75;;;13.48;51.80
48964;BME280;34776;48.180;16.420;2023-04-09T11:04:42;100579.34;;;13.28;51.75
48964;BME280;34776;48.180;16.420;2023-04-09T11:07:14;100582.53;;;13.36;52.28
48964;BME280;34776;48.180;16.420;2023-04-09T11:09:40;100582.94;;;13.46;52.12
48964;BME280;34776;48.180;16.420;2023-04-09T11:12:05;100583.75;;;13.48;52.27
48964;BME280;34776;48.180;16.420;2023-04-09T11:14:32;100577.97;;;13.56;51.97
48964;BME280;34776;48.180;16.420;2023-04-09T11:16:57;100580.34;;;13.62;51.83
48964;BME280;34776;48.180;16.420;2023-04-09T11:19:23;100579.47;;;13.62;51.98
48964;BME280;34776;48.180;16.420;2023-04-09T11:21:48;100579.09;;;13.69;52.28
48964;BME280;34776;48.180;16.420;2023-04-09T11:24:14;100574.13;;;13.79;51.16
48964;BME280;34776;48.180;16.420;2023-04-09T11:26:40;100573.56;;;13.72;50.87
48964;BME280;34776;48.180;16.420;2023-04-09T11:29:08;100571.28;;;13.65;52.00
48964;BME280;34776;48.180;16.420;2023-04-09T11:31:34;100574.84;;;13.48;51.71
48964;BME280;34776;48.180;16.420;2023-04-09T11:34:00;100573.19;;;13.45;52.25
48964;BME280;34776;48.180;16.420;2023-04-09T11:36:26;100572.56;;;13.57;52.42
48964;BME280;34776;48.180;16.420;2023-04-09T11:38:52;100576.50;;;13.68;52.75
48964;BME280;34776;48.180;16.420;2023-04-09T11:41:34;100571.75;;;13.90;51.92
48964;BME280;34776;48.180;16.420;2023-04-09T11:44:03;100574.13;;;13.79;51.83
48964;BME280;34776;48.180;16.420;2023-04-09T11:46:31;100575.88;;;13.45;52.76
48964;BME280;34776;48.180;16.420;2023-04-09T11:48:57;100579.50;;;13.44;53.11
48964;BME280;34776;48.180;16.420;2023-04-09T11:51:22;100573.97;;;13.65;52.50
48964;BME280;34776;48.180;16.420;2023-04-09T11:53:48;100568.06;;;13.93;52.12
48964;BME280;34776;48.180;16.420;2023-04-09T11:56:14;100569.44;;;14.33;51.88
48964;BME280;34776;48.180;16.420;2023-04-09T11:58:44;100566.31;;;14.74;51.18
48964;BME280;34776;48.180;16.420;2023-04-09T12:01:11;100570.34;;;14.81;49.55
48964;BME280;34776;48.180;16.420;2023-04-09T12:03:36;100568.97;;;14.74;49.73
48964;BME280;34776;48.180;16.420;2023-04-09T12:06:03;100571.72;;;14.57;49.03
48964;BME280;34776;48.180;16.420;2023-04-09T12:08:32;100577.81;;;14.43;49.12
48964;BME280;34776;48.180;16.420;2023-04-09T12:11:09;100575.34;;;14.56;48.37
48964;BME280;34776;48.180;16.420;2023-04-09T12:13:35;100570.00;;;14.56;49.04
48964;BME280;34776;48.180;16.420;2023-04-09T12:16:01;100565.81;;;14.50;49.21
48964;BME280;34776;48.180;16.420;2023-04-09T12:18:28;100568.22;;;14.55;48.37
48964;BME280;34776;48.180;16.420;2023-04-09T12:20:54;100577.13;;;14.39;48.26
48964;BME280;34776;48.180;16.420;2023-04-09T12:23:19;100576.75;;;14.30;48.25
48964;BME280;34776;48.180;16.420;2023-04-09T12:25:44;100579.59;;;14.27;48.39
48964;BME280;34776;48.180;16.420;2023-04-09T12:28:12;100579.88;;;14.05;48.56
48964;BME280;34776;48.180;16.420;2023-04-09T12:30:39;100566.28;;;13.76;48.15
48964;BME280;34776;48.180;16.420;2023-04-09T12:33:05;100569.13;;;13.38;48.99
48964;BME280;34776;48.180;16.420;2023-04-09T12:35:31;100571.91;;;13.17;49.13
48964;BME280;34776;48.180;16.420;2023-04-09T12:37:56;100568.44;;;13.15;49.21
48964;BME280;34776;48.180;16.420;2023-04-09T12:40:23;100566.84;;;13.30;49.05
48964;BME280;34776;48.180;16.420;2023-04-09T12:42:48;100573.47;;;13.22;48.70
48964;BME280;34776;48.180;16.420;2023-04-09T12:45:16;100572.91;;;13.15;48.69
48964;BME280;34776;48.180;16.420;2023-04-09T12:47:42;100567.03;;;13.26;49.24
48964;BME280;34776;48.180;16.420;2023-04-09T12:50:09;100569.44;;;13.32;48.34
48964;BME280;34776;48.180;16.420;2023-04-09T12:52:35;100566.38;;;13.03;48.49
48964;BME280;34776;48.180;16.420;2023-04-09T12:55:00;100566.59;;;12.81;49.46